createdAt,value
2022-11-12T00:01:03.174Z,6.1
2022-11-12T00:05:07.855Z,6.1
2022-11-12T00:10:08.321Z,5.9
2022-11-12T00:15:08.015Z,5.9
2022-11-12T00:20:07.705Z,6.0
2022-11-12T00:25:08.403Z,6.0
2022-11-12T00:30:08.118Z,6.1
2022-11-12T00:35:12.450Z,5.9
2022-11-12T00:40:08.490Z,5.8
2022-11-12T00:45:08.175Z,5.8
2022-11-12T00:50:07.898Z,5.8
2022-11-12T00:55:08.611Z,5.8
2022-11-12T01:00:08.329Z,5.3
2022-11-12T01:05:07.642Z,5.3
2022-11-12T01:10:08.419Z,5.3
2022-11-12T01:15:08.120Z,5.3
2022-11-12T01:20:07.837Z,5.0
2022-11-12T01:25:08.553Z,5.0
2022-11-12T01:30:08.253Z,4.8
2022-11-12T01:35:07.981Z,4.8
2022-11-12T01:40:07.694Z,4.8
2022-11-12T01:45:08.421Z,4.8
2022-11-12T01:50:08.126Z,4.5
2022-11-12T01:55:07.823Z,4.5
2022-11-12T02:00:08.537Z,4.5
2022-11-12T02:05:08.240Z,4.5
2022-11-12T02:10:07.972Z,4.3
2022-11-12T02:15:07.663Z,4.3
2022-11-12T02:20:08.385Z,4.3
2022-11-12T02:25:08.079Z,4.3
2022-11-12T02:30:07.757Z,4.3
2022-11-12T02:35:08.460Z,4.3
2022-11-12T02:40:08.160Z,4.3
2022-11-12T02:45:07.892Z,4.3
2022-11-12T02:50:08.619Z,4.3
2022-11-12T02:55:08.306Z,4.3
2022-11-12T03:00:08.038Z,4.0
2022-11-12T03:05:07.733Z,4.0
2022-11-12T03:10:08.410Z,4.0
2022-11-12T03:15:08.122Z,4.0
2022-11-12T03:20:07.820Z,4.0
2022-11-12T03:25:08.551Z,4.0
2022-11-12T03:30:08.260Z,4.3
2022-11-12T03:35:07.942Z,4.3
2022-11-12T03:40:07.637Z,4.0
2022-11-12T03:45:08.348Z,4.0
2022-11-12T03:50:08.031Z,4.3
2022-11-12T03:55:07.727Z,4.3
2022-11-12T04:00:08.415Z,4.0
2022-11-12T04:05:08.166Z,4.0
2022-11-12T04:10:07.883Z,4.3
2022-11-12T04:15:08.579Z,4.3
2022-11-12T04:20:08.293Z,4.3
2022-11-12T04:25:08.013Z,4.3
2022-11-12T04:30:07.740Z,4.0
2022-11-12T04:35:08.503Z,4.0
2022-11-12T04:40:08.271Z,4.0
2022-11-12T04:45:07.958Z,4.0
2022-11-12T04:50:07.645Z,4.0
2022-11-12T04:55:08.342Z,4.0
2022-11-12T05:00:08.060Z,4.3
2022-11-12T05:05:01.969Z,4.3
2022-11-12T05:10:01.893Z,4.0
2022-11-12T05:15:01.883Z,4.0
2022-11-12T05:20:02.782Z,4.0
2022-11-12T05:25:02.715Z,4.0
2022-11-12T05:30:02.741Z,4.0
2022-11-12T05:35:02.707Z,4.0
2022-11-12T05:40:02.634Z,3.7
2022-11-12T05:45:02.561Z,3.7
2022-11-12T05:50:02.590Z,3.7
2022-11-12T05:55:02.579Z,3.7
2022-11-12T06:00:02.590Z,3.7
2022-11-12T06:05:03.378Z,3.7
2022-11-12T06:10:02.329Z,3.7
2022-11-12T06:15:02.257Z,3.7
2022-11-12T06:20:02.745Z,3.7
2022-11-12T06:25:03.056Z,3.7
2022-11-12T06:30:02.339Z,3.7
2022-11-12T06:35:02.441Z,3.7
2022-11-12T06:40:02.334Z,3.7
2022-11-12T06:45:02.544Z,3.7
2022-11-12T06:50:02.614Z,3.7
2022-11-12T06:55:04.039Z,3.7
2022-11-12T07:00:01.998Z,3.7
2022-11-12T07:05:02.453Z,3.7
2022-11-12T07:10:02.898Z,3.7
2022-11-12T07:15:03.191Z,3.7
2022-11-12T07:20:04.179Z,4.0
2022-11-12T07:25:02.831Z,4.0
2022-11-12T07:30:05.280Z,4.0
2022-11-12T07:35:02.520Z,4.0
2022-11-12T07:40:05.070Z,4.5
2022-11-12T07:45:02.176Z,4.5
2022-11-12T07:50:03.296Z,4.8
2022-11-12T07:55:02.555Z,4.8
2022-11-12T08:00:04.262Z,5.0
2022-11-12T08:05:06.152Z,5.0
2022-11-12T08:10:04.843Z,5.4
2022-11-12T08:15:02.893Z,5.4
2022-11-12T08:20:04.074Z,5.8
2022-11-12T08:25:03.069Z,5.9
2022-11-12T08:30:03.158Z,5.9
2022-11-12T08:35:01.993Z,6.4
2022-11-12T08:40:03.157Z,6.5
2022-11-12T08:45:03.212Z,6.5
2022-11-12T08:50:03.110Z,7.5
2022-11-12T08:55:02.072Z,7.5
2022-11-12T09:00:02.203Z,9.1
2022-11-12T09:05:02.276Z,9.1
2022-11-12T09:10:03.382Z,9.6
2022-11-12T09:15:35.811Z,9.6
2022-11-12T09:20:02.804Z,10.8
2022-11-12T09:25:03.617Z,10.8
2022-11-12T09:30:03.592Z,12.1
2022-11-12T09:35:02.557Z,12.1
2022-11-12T09:40:02.366Z,12.1
2022-11-12T09:45:03.543Z,12.1
2022-11-12T09:50:02.669Z,11.8
2022-11-12T09:55:13.687Z,11.8
2022-11-12T10:00:04.114Z,12.1
2022-11-12T10:05:02.820Z,12.1
2022-11-12T10:10:02.784Z,13.5
2022-11-12T10:15:02.748Z,13.5
2022-11-12T10:20:02.788Z,12.8
2022-11-12T10:25:02.687Z,12.8
2022-11-12T10:30:03.835Z,13.8
2022-11-12T10:35:02.979Z,13.8
2022-11-12T10:40:02.155Z,13.6
2022-11-12T10:45:03.494Z,13.6
2022-11-12T10:50:12.252Z,14.3
2022-11-12T10:55:03.361Z,14.3
2022-11-12T11:00:02.327Z,13.6
2022-11-12T11:05:02.742Z,13.6
2022-11-12T11:10:12.415Z,14.1
2022-11-12T11:15:03.094Z,14.1
2022-11-12T11:20:03.119Z,12.8
2022-11-12T11:25:02.310Z,12.8
2022-11-12T11:30:02.683Z,13.1
2022-11-12T11:35:04.483Z,13.1
2022-11-12T11:40:08.862Z,13.1
2022-11-12T11:45:03.297Z,13.3
2022-11-12T11:50:02.910Z,13.3
2022-11-12T11:55:02.910Z,13.3
2022-11-12T12:00:04.337Z,13.3
2022-11-12T12:05:02.958Z,13.3
2022-11-12T12:10:10.815Z,13.3
2022-11-12T12:15:14.223Z,13.6
2022-11-12T12:20:02.784Z,13.6
2022-11-12T12:25:02.600Z,14.3
2022-11-12T12:30:03.107Z,14.3
2022-11-12T12:35:03.832Z,13.8
2022-11-12T12:40:03.144Z,13.6
2022-11-12T12:45:03.486Z,13.6
2022-11-12T12:50:06.418Z,13.6
2022-11-12T12:55:03.415Z,13.6
2022-11-12T13:00:02.718Z,13.6
2022-11-12T13:05:03.094Z,13.6
2022-11-12T13:10:02.255Z,14.0
2022-11-12T13:15:03.263Z,14.0
2022-11-12T13:20:04.144Z,13.5
2022-11-12T13:25:02.540Z,13.5
2022-11-12T13:30:02.804Z,13.5
2022-11-12T13:35:03.207Z,13.5
2022-11-12T13:40:02.022Z,13.6
2022-11-12T13:45:03.326Z,13.6
2022-11-12T13:50:02.380Z,13.8
2022-11-12T13:55:02.579Z,13.8
2022-11-12T14:00:02.552Z,13.6
2022-11-12T14:05:03.628Z,13.6
2022-11-12T14:10:03.301Z,15.1
2022-11-12T14:15:02.263Z,15.1
2022-11-12T14:20:02.370Z,15.6
2022-11-12T14:25:02.443Z,15.6
2022-11-12T14:30:03.818Z,16.6
2022-11-12T14:35:02.881Z,16.6
2022-11-12T14:40:03.130Z,16.2
2022-11-12T14:45:03.096Z,16.2
2022-11-12T14:50:02.110Z,15.8
2022-11-12T14:55:02.162Z,15.8
2022-11-12T15:00:02.420Z,14.5
2022-11-12T15:05:04.124Z,14.5
2022-11-12T15:10:02.175Z,13.6
2022-11-12T15:15:02.312Z,13.6
2022-11-12T15:20:02.322Z,12.8
2022-11-12T15:25:03.188Z,12.8
2022-11-12T15:30:02.702Z,12.0
2022-11-12T15:35:02.752Z,12.0
2022-11-12T15:40:02.679Z,12.0
2022-11-12T15:45:02.957Z,12.0
2022-11-12T15:50:01.851Z,11.3
2022-11-12T15:55:02.739Z,11.3
2022-11-12T16:00:07.837Z,11.0
2022-11-12T16:05:03.942Z,11.0
2022-11-12T16:10:01.940Z,10.8
2022-11-12T16:15:03.290Z,10.3
2022-11-12T16:20:03.005Z,10.1
2022-11-12T16:25:02.155Z,10.1
2022-11-12T16:30:02.439Z,9.6
2022-11-12T16:35:02.276Z,9.6
2022-11-12T16:40:03.078Z,9.8
2022-11-12T16:45:01.981Z,9.8
2022-11-12T16:50:02.412Z,9.5
2022-11-12T16:55:04.831Z,9.5
2022-11-12T17:00:02.592Z,9.1
2022-11-12T17:05:02.818Z,9.1
2022-11-12T17:10:04.120Z,9.0
2022-11-12T17:15:02.473Z,9.0
2022-11-12T17:20:03.146Z,8.6
2022-11-12T17:25:02.755Z,8.6
2022-11-12T17:30:02.864Z,8.3
2022-11-12T17:35:04.646Z,8.3
2022-11-12T17:40:02.947Z,8.3
2022-11-12T17:45:02.086Z,8.3
2022-11-12T17:50:02.434Z,8.1
2022-11-12T17:55:02.362Z,8.1
2022-11-12T18:00:02.288Z,8.1
2022-11-12T18:05:02.769Z,8.1
2022-11-12T18:10:03.741Z,8.1
2022-11-12T18:15:03.333Z,8.1
2022-11-12T18:20:02.257Z,8.1
2022-11-12T18:25:02.262Z,8.1
2022-11-12T18:30:02.894Z,8.3
2022-11-12T18:35:03.623Z,8.3
2022-11-12T18:40:03.807Z,8.3
2022-11-12T18:45:02.935Z,8.3
2022-11-12T18:50:08.437Z,8.5
2022-11-12T18:55:04.555Z,8.5
2022-11-12T19:00:03.740Z,8.5
2022-11-12T19:05:02.682Z,8.5
2022-11-12T19:10:03.634Z,8.0
2022-11-12T19:15:02.617Z,8.0
2022-11-12T19:20:04.397Z,7.9
2022-11-12T19:25:02.451Z,7.9
2022-11-12T19:30:04.267Z,8.1
2022-11-12T19:35:02.288Z,8.1
2022-11-12T19:40:02.749Z,8.1
2022-11-12T19:45:03.081Z,8.1
2022-11-12T19:50:02.241Z,8.1
2022-11-12T19:55:02.445Z,8.1
2022-11-12T20:00:02.433Z,8.1
2022-11-12T20:05:02.502Z,8.1
2022-11-12T20:10:02.572Z,8.3
2022-11-12T20:15:02.457Z,8.3
2022-11-12T20:20:02.774Z,8.3
2022-11-12T20:25:02.774Z,8.3
2022-11-12T20:30:02.869Z,8.3
2022-11-12T20:35:08.541Z,8.3
2022-11-12T20:40:02.707Z,8.1
2022-11-12T20:45:02.925Z,8.1
2022-11-12T20:50:03.307Z,8.1
2022-11-12T20:55:04.233Z,8.1
2022-11-12T21:00:02.263Z,8.3
2022-11-12T21:05:02.406Z,8.3
2022-11-12T21:10:02.272Z,8.3
2022-11-12T21:15:02.424Z,8.3
2022-11-12T21:20:02.902Z,7.9
2022-11-12T21:25:03.121Z,7.9
2022-11-12T21:30:02.667Z,7.9
2022-11-12T21:35:02.772Z,7.9
2022-11-12T21:40:04.021Z,7.6
2022-11-12T21:45:02.440Z,7.6
2022-11-12T21:50:02.321Z,7.4
2022-11-12T21:55:03.270Z,7.4
2022-11-12T22:00:26.725Z,7.4
2022-11-12T22:05:02.384Z,7.4
2022-11-12T22:10:03.123Z,7.4
2022-11-12T22:15:02.320Z,7.4
2022-11-12T22:20:02.937Z,7.5
2022-11-12T22:25:03.030Z,7.5
2022-11-12T22:30:01.874Z,7.4
2022-11-12T22:35:15.524Z,7.4
2022-11-12T22:40:13.205Z,7.5
2022-11-12T22:45:08.313Z,7.5
2022-11-12T22:50:07.983Z,7.5
2022-11-12T22:55:07.680Z,7.5
2022-11-12T23:00:08.405Z,7.9
2022-11-12T23:05:08.103Z,7.9
2022-11-12T23:10:07.829Z,7.5
2022-11-12T23:15:08.538Z,7.5
2022-11-12T23:20:08.277Z,7.4
2022-11-12T23:25:08.030Z,7.4
2022-11-12T23:30:07.716Z,7.4
2022-11-12T23:35:08.417Z,7.4
2022-11-12T23:40:08.167Z,7.0
2022-11-12T23:45:07.864Z,7.0
2022-11-12T23:50:08.703Z,6.9
2022-11-12T23:55:08.414Z,6.9
